sensor_id;sensor_type;location;lat;lon;timestamp;pressure;altitude;pressure_sealevel;temperature;humidity
12077;BME280;12420;42.676;23.262;2022-09-20T00:01:28;94684.56;;;12.51;90.88
12077;BME280;12420;42.676;23.262;2022-09-20T00:03:58;94680.59;;;12.60;90.36
12077;BME280;12420;42.676;23.262;2022-09-20T00:06:28;94593.34;;;12.00;90.63
12077;BME280;12420;42.676;23.262;2022-09-20T00:08:56;94557.47;;;11.68;89.53
12077;BME280;12420;42.676;23.262;2022-09-20T00:11:26;94588.03;;;11.62;89.84
12077;BME280;12420;42.676;23.262;2022-09-20T00:13:55;94621.63;;;11.99;90.45
12077;BME280;12420;42.676;23.262;2022-09-20T00:16:24;94700.38;;;12.43;89.63
12077;BME280;12420;42.676;23.262;2022-09-20T00:18:52;94599.53;;;11.80;88.78
12077;BME280;12420;42.676;23.262;2022-09-20T00:21:21;94696.25;;;12.36;88.55
12077;BME280;12420;42.676;23.262;2022-09-20T00:23:50;94630.28;;;11.68;88.55
12077;BME280;12420;42.676;23.262;2022-09-20T00:26:17;94691.25;;;12.22;88.78
12077;BME280;12420;42.676;23.262;2022-09-20T00:28:45;94695.00;;;12.11;88.96
12077;BME280;12420;42.676;23.262;2022-09-20T00:31:13;94682.50;;;12.18;89.67
12077;BME280;12420;42.676;23.262;2022-09-20T00:33:41;94677.00;;;11.91;89.53
12077;BME280;12420;42.676;23.262;2022-09-20T00:36:25;94675.25;;;12.14;89.46
12077;BME280;12420;42.676;23.262;2022-09-20T00:38:55;94663.53;;;12.08;89.96
12077;BME280;12420;42.676;23.262;2022-09-20T00:41:23;94678.44;;;12.19;88.94
12077;BME280;12420;42.676;23.262;2022-09-20T00:43:51;94681.66;;;12.23;88.99
12077;BME280;12420;42.676;23.262;2022-09-20T00:46:22;94587.22;;;11.54;88.78
12077;BME280;12420;42.676;23.262;2022-09-20T00:48:51;94684.66;;;12.11;88.64
12077;BME280;12420;42.676;23.262;2022-09-20T00:51:24;94676.16;;;11.96;89.25
12077;BME280;12420;42.676;23.262;2022-09-20T00:53:55;94700.53;;;12.11;88.70
12077;BME280;12420;42.676;23.262;2022-09-20T00:56:26;94688.31;;;12.06;89.16
12077;BME280;12420;42.676;23.262;2022-09-20T00:59:00;94701.75;;;11.89;89.18
12077;BME280;12420;42.676;23.262;2022-09-20T01:01:29;94687.88;;;12.02;88.45
12077;BME280;12420;42.676;23.262;2022-09-20T01:03:57;94626.66;;;11.47;87.39
12077;BME280;12420;42.676;23.262;2022-09-20T01:06:25;94672.06;;;11.84;87.43
12077;BME280;12420;42.676;23.262;2022-09-20T01:08:57;94585.53;;;11.38;87.09
12077;BME280;12420;42.676;23.262;2022-09-20T01:11:27;94679.75;;;12.04;85.05
12077;BME280;12420;42.676;23.262;2022-09-20T01:13:54;94695.13;;;12.05;85.46
12077;BME280;12420;42.676;23.262;2022-09-20T01:16:23;94690.97;;;11.99;85.83
12077;BME280;12420;42.676;23.262;2022-09-20T01:18:51;94684.03;;;12.05;85.80
12077;BME280;12420;42.676;23.262;2022-09-20T01:21:20;94686.78;;;12.05;83.56
12077;BME280;12420;42.676;23.262;2022-09-20T01:23:52;94698.31;;;12.09;84.34
12077;BME280;12420;42.676;23.262;2022-09-20T01:26:36;94610.47;;;11.51;83.56
12077;BME280;12420;42.676;23.262;2022-09-20T01:29:23;94674.44;;;12.06;82.46
12077;BME280;12420;42.676;23.262;2022-09-20T01:31:58;94568.47;;;11.34;82.52
12077;BME280;12420;42.676;23.262;2022-09-20T01:34:30;94674.75;;;12.03;82.31
12077;BME280;12420;42.676;23.262;2022-09-20T01:37:04;94677.38;;;12.08;83.76
12077;BME280;12420;42.676;23.262;2022-09-20T01:39:37;94684.44;;;12.09;82.98
12077;BME280;12420;42.676;23.262;2022-09-20T01:42:09;94671.00;;;11.73;81.07
12077;BME280;12420;42.676;23.262;2022-09-20T01:44:44;94678.94;;;11.96;81.82
12077;BME280;12420;42.676;23.262;2022-09-20T01:47:30;94692.47;;;11.73;81.58
12077;BME280;12420;42.676;23.262;2022-09-20T01:50:08;94691.78;;;11.80;82.27
12077;BME280;12420;42.676;23.262;2022-09-20T01:52:55;94679.34;;;11.73;82.62
12077;BME280;12420;42.676;23.262;2022-09-20T01:55:49;94690.94;;;11.45;82.62
12077;BME280;12420;42.676;23.262;2022-09-20T02:05:00;94668.66;;;11.38;83.58
12077;BME280;12420;42.676;23.262;2022-09-20T02:07:48;94668.22;;;11.34;84.46
12077;BME280;12420;42.676;23.262;2022-09-20T02:10:46;94665.66;;;11.36;84.49
12077;BME280;12420;42.676;23.262;2022-09-20T02:13:27;94622.06;;;11.10;85.40
12077;BME280;12420;42.676;23.262;2022-09-20T02:16:19;94665.03;;;11.43;85.58
12077;BME280;12420;42.676;23.262;2022-09-20T02:22:25;94658.63;;;11.35;85.23
12077;BME280;12420;42.676;23.262;2022-09-20T02:25:03;94665.66;;;11.36;85.86
12077;BME280;12420;42.676;23.262;2022-09-20T02:27:40;94663.84;;;11.38;86.64
12077;BME280;12420;42.676;23.262;2022-09-20T02:30:22;94634.97;;;11.20;86.57
12077;BME280;12420;42.676;23.262;2022-09-20T02:33:22;94662.56;;;11.26;87.25
12077;BME280;12420;42.676;23.262;2022-09-20T02:36:08;94668.50;;;11.17;88.40
12077;BME280;12420;42.676;23.262;2022-09-20T02:38:47;94674.59;;;11.15;89.73
12077;BME280;12420;42.676;23.262;2022-09-20T02:41:48;94667.75;;;11.16;91.28
12077;BME280;12420;42.676;23.262;2022-09-20T02:44:27;94678.41;;;11.12;92.43
12077;BME280;12420;42.676;23.262;2022-09-20T02:47:08;94678.41;;;11.12;92.95
12077;BME280;12420;42.676;23.262;2022-09-20T02:49:50;94667.00;;;11.02;94.01
12077;BME280;12420;42.676;23.262;2022-09-20T02:52:28;94695.47;;;11.16;94.16
12077;BME280;12420;42.676;23.262;2022-09-20T02:55:01;94681.50;;;11.22;93.47
12077;BME280;12420;42.676;23.262;2022-09-20T02:57:40;94628.06;;;10.81;93.21
12077;BME280;12420;42.676;23.262;2022-09-20T03:00:13;94649.75;;;11.10;92.38
12077;BME280;12420;42.676;23.262;2022-09-20T03:02:50;94668.44;;;11.22;91.46
12077;BME280;12420;42.676;23.262;2022-09-20T03:05:26;94612.81;;;10.75;90.92
12077;BME280;12420;42.676;23.262;2022-09-20T03:08:14;94655.38;;;11.04;91.96
12077;BME280;12420;42.676;23.262;2022-09-20T03:10:50;94649.41;;;11.00;91.40
12077;BME280;12420;42.676;23.262;2022-09-20T03:13:28;94672.88;;;11.12;91.23
12077;BME280;12420;42.676;23.262;2022-09-20T03:16:04;94719.31;;;11.19;91.73
12077;BME280;12420;42.676;23.262;2022-09-20T03:18:42;94652.69;;;10.98;92.39
12077;BME280;12420;42.676;23.262;2022-09-20T03:21:24;94693.66;;;11.19;91.99
12077;BME280;12420;42.676;23.262;2022-09-20T03:24:04;94694.81;;;11.10;92.48
12077;BME280;12420;42.676;23.262;2022-09-20T03:26:42;94675.72;;;11.06;92.14
12077;BME280;12420;42.676;23.262;2022-09-20T03:29:20;94706.63;;;11.11;92.17
12077;BME280;12420;42.676;23.262;2022-09-20T03:32:00;94583.53;;;10.34;91.30
12077;BME280;12420;42.676;23.262;2022-09-20T03:34:42;94670.63;;;10.78;92.26
12077;BME280;12420;42.676;23.262;2022-09-20T03:37:28;94678.91;;;10.97;93.11
12077;BME280;12420;42.676;23.262;2022-09-20T03:40:23;94718.16;;;11.15;90.48
12077;BME280;12420;42.676;23.262;2022-09-20T03:43:02;94708.44;;;11.08;90.60
12077;BME280;12420;42.676;23.262;2022-09-20T03:45:40;94683.34;;;10.87;91.22
12077;BME280;12420;42.676;23.262;2022-09-20T03:51:17;94693.19;;;11.01;91.14
12077;BME280;12420;42.676;23.262;2022-09-20T03:54:22;94688.19;;;11.00;91.62
12077;BME280;12420;42.676;23.262;2022-09-20T03:57:14;94698.81;;;10.96;91.05
12077;BME280;12420;42.676;23.262;2022-09-20T03:59:57;94689.63;;;10.88;91.17
12077;BME280;12420;42.676;23.262;2022-09-20T04:02:39;94670.34;;;10.82;91.69
12077;BME280;12420;42.676;23.262;2022-09-20T04:05:14;94682.09;;;11.01;91.27
12077;BME280;12420;42.676;23.262;2022-09-20T04:07:54;94686.91;;;11.01;90.78
12077;BME280;12420;42.676;23.262;2022-09-20T04:10:34;94706.19;;;11.06;92.38
12077;BME280;12420;42.676;23.262;2022-09-20T04:13:29;94709.28;;;11.03;92.05
12077;BME280;12420;42.676;23.262;2022-09-20T04:16:09;94681.28;;;10.74;92.94
12077;BME280;12420;42.676;23.262;2022-09-20T04:18:45;94712.50;;;11.07;92.70
12077;BME280;12420;42.676;23.262;2022-09-20T04:21:18;94723.88;;;11.03;92.80
12077;BME280;12420;42.676;23.262;2022-09-20T04:23:52;94678.16;;;10.46;92.81
12077;BME280;12420;42.676;23.262;2022-09-20T04:26:25;94717.78;;;10.92;93.44
12077;BME280;12420;42.676;23.262;2022-09-20T04:28:59;94714.47;;;10.93;94.64
12077;BME280;12420;42.676;23.262;2022-09-20T04:31:34;94726.41;;;11.01;94.08
12077;BME280;12420;42.676;23.262;2022-09-20T04:34:11;94714.25;;;10.91;94.39
12077;BME280;12420;42.676;23.262;2022-09-20T04:36:56;94716.53;;;11.06;93.77
12077;BME280;12420;42.676;23.262;2022-09-20T04:39:36;94726.97;;;11.00;93.13
12077;BME280;12420;42.676;23.262;2022-09-20T04:45:35;94647.41;;;10.36;92.40
12077;BME280;12420;42.676;23.262;2022-09-20T04:51:56;94725.31;;;11.23;91.21
12077;BME280;12420;42.676;23.262;2022-09-20T04:55:08;94725.19;;;11.16;91.34
12077;BME280;12420;42.676;23.262;2022-09-20T05:07:24;94735.41;;;11.66;86.48
12077;BME280;12420;42.676;23.262;2022-09-20T05:10:24;94736.91;;;11.67;86.79
12077;BME280;12420;42.676;23.262;2022-09-20T05:13:08;94747.47;;;11.69;86.12
12077;BME280;12420;42.676;23.262;2022-09-20T05:15:40;94744.91;;;11.71;86.89
12077;BME280;12420;42.676;23.262;2022-09-20T05:18:32;94777.38;;;11.89;84.99
12077;BME280;12420;42.676;23.262;2022-09-20T05:21:15;94712.50;;;11.79;83.56
12077;BME280;12420;42.676;23.262;2022-09-20T05:24:00;94742.06;;;12.03;84.08
12077;BME280;12420;42.676;23.262;2022-09-20T05:26:46;94719.31;;;11.65;83.89
12077;BME280;12420;42.676;23.262;2022-09-20T05:29:23;94757.84;;;11.95;84.65
12077;BME280;12420;42.676;23.262;2022-09-20T05:31:57;94677.94;;;11.40;84.11
12077;BME280;12420;42.676;23.262;2022-09-20T05:34:32;94755.50;;;12.12;83.47
12077;BME280;12420;42.676;23.262;2022-09-20T05:37:11;94732.25;;;11.89;83.04
12077;BME280;12420;42.676;23.262;2022-09-20T05:39:48;94722.81;;;11.52;85.92
12077;BME280;12420;42.676;23.262;2022-09-20T05:42:19;94762.53;;;12.00;84.07
12077;BME280;12420;42.676;23.262;2022-09-20T05:45:04;94761.69;;;12.05;82.72
12077;BME280;12420;42.676;23.262;2022-09-20T05:47:39;94704.63;;;11.24;82.82
12077;BME280;12420;42.676;23.262;2022-09-20T05:50:27;94743.97;;;11.82;83.04
12077;BME280;12420;42.676;23.262;2022-09-20T05:53:00;94727.75;;;11.27;83.40
12077;BME280;12420;42.676;23.262;2022-09-20T05:55:48;94756.13;;;11.65;85.30
12077;BME280;12420;42.676;23.262;2022-09-20T05:58:39;94758.22;;;11.72;85.55
12077;BME280;12420;42.676;23.262;2022-09-20T06:01:17;94758.25;;;11.86;85.27
12077;BME280;12420;42.676;23.262;2022-09-20T06:03:52;94751.88;;;12.18;84.73
12077;BME280;12420;42.676;23.262;2022-09-20T06:06:41;94753.78;;;12.49;82.96
12077;BME280;12420;42.676;23.262;2022-09-20T06:12:22;94759.31;;;12.49;80.46
12077;BME280;12420;42.676;23.262;2022-09-20T06:14:56;94724.09;;;12.31;79.17
12077;BME280;12420;42.676;23.262;2022-09-20T06:17:32;94726.31;;;12.46;79.95
12077;BME280;12420;42.676;23.262;2022-09-20T06:20:12;94707.63;;;12.46;78.35
12077;BME280;12420;42.676;23.262;2022-09-20T06:22:44;94759.63;;;12.93;79.04
12077;BME280;12420;42.676;23.262;2022-09-20T06:25:18;94686.28;;;12.41;78.84
12077;BME280;12420;42.676;23.262;2022-09-20T06:27:52;94712.81;;;12.29;77.59
12077;BME280;12420;42.676;23.262;2022-09-20T06:30:23;94680.13;;;12.35;78.01
12077;BME280;12420;42.676;23.262;2022-09-20T06:32:56;94763.81;;;12.87;79.67
12077;BME280;12420;42.676;23.262;2022-09-20T06:35:30;94699.00;;;12.50;79.56
12077;BME280;12420;42.676;23.262;2022-09-20T06:38:08;94682.91;;;12.35;80.75
12077;BME280;12420;42.676;23.262;2022-09-20T06:40:57;94757.06;;;13.16;80.41
12077;BME280;12420;42.676;23.262;2022-09-20T06:43:46;94743.28;;;12.90;79.32
12077;BME280;12420;42.676;23.262;2022-09-20T06:46:14;94767.31;;;13.21;79.09
12077;BME280;12420;42.676;23.262;2022-09-20T06:48:41;94684.25;;;12.55;78.18
12077;BME280;12420;42.676;23.262;2022-09-20T06:51:08;94722.44;;;12.62;78.43
12077;BME280;12420;42.676;23.262;2022-09-20T06:53:39;94760.25;;;12.99;79.31
12077;BME280;12420;42.676;23.262;2022-09-20T06:56:07;94738.66;;;13.06;77.51
12077;BME280;12420;42.676;23.262;2022-09-20T06:58:37;94751.28;;;12.93;75.56
12077;BME280;12420;42.676;23.262;2022-09-20T07:01:04;94736.88;;;12.60;76.01
12077;BME280;12420;42.676;23.262;2022-09-20T07:03:31;94750.41;;;12.64;76.77
12077;BME280;12420;42.676;23.262;2022-09-20T07:05:58;94775.63;;;13.00;75.99
12077;BME280;12420;42.676;23.262;2022-09-20T07:08:27;94747.88;;;12.87;75.18
12077;BME280;12420;42.676;23.262;2022-09-20T07:10:55;94745.00;;;12.93;73.93
12077;BME280;12420;42.676;23.262;2022-09-20T07:13:22;94722.47;;;12.83;73.76
12077;BME280;12420;42.676;23.262;2022-09-20T07:15:49;94794.22;;;12.92;74.83
12077;BME280;12420;42.676;23.262;2022-09-20T07:18:16;94741.34;;;12.98;75.55
12077;BME280;12420;42.676;23.262;2022-09-20T07:20:43;94755.06;;;13.38;74.08
12077;BME280;12420;42.676;23.262;2022-09-20T07:23:10;94790.81;;;13.55;73.91
12077;BME280;12420;42.676;23.262;2022-09-20T07:25:36;94707.19;;;12.55;73.31
12077;BME280;12420;42.676;23.262;2022-09-20T07:28:05;94746.28;;;12.57;75.33
12077;BME280;12420;42.676;23.262;2022-09-20T07:30:32;94718.91;;;12.62;75.50
12077;BME280;12420;42.676;23.262;2022-09-20T07:32:58;94736.38;;;12.83;74.41
12077;BME280;12420;42.676;23.262;2022-09-20T07:35:26;94782.75;;;13.09;73.86
12077;BME280;12420;42.676;23.262;2022-09-20T07:37:58;94734.75;;;12.88;73.71
12077;BME280;12420;42.676;23.262;2022-09-20T07:40:26;94745.81;;;13.01;72.60
12077;BME280;12420;42.676;23.262;2022-09-20T07:42:55;94777.13;;;13.01;73.20
12077;BME280;12420;42.676;23.262;2022-09-20T07:45:23;94727.31;;;12.69;72.77
12077;BME280;12420;42.676;23.262;2022-09-20T07:47:50;94780.50;;;13.08;73.89
12077;BME280;12420;42.676;23.262;2022-09-20T07:50:17;94813.19;;;13.28;71.57
12077;BME280;12420;42.676;23.262;2022-09-20T07:52:44;94766.72;;;13.15;71.10
12077;BME280;12420;42.676;23.262;2022-09-20T07:55:11;94773.13;;;13.44;69.98
12077;BME280;12420;42.676;23.262;2022-09-20T07:57:38;94778.88;;;13.46;70.04
12077;BME280;12420;42.676;23.262;2022-09-20T08:00:10;94749.56;;;13.45;72.45
12077;BME280;12420;42.676;23.262;2022-09-20T08:02:38;94712.19;;;13.12;69.45
12077;BME280;12420;42.676;23.262;2022-09-20T08:05:06;94717.19;;;13.27;69.02
12077;BME280;12420;42.676;23.262;2022-09-20T08:07:34;94743.13;;;13.72;68.00
12077;BME280;12420;42.676;23.262;2022-09-20T08:10:02;94764.25;;;14.32;67.36
12077;BME280;12420;42.676;23.262;2022-09-20T08:12:33;94773.19;;;14.30;63.49
12077;BME280;12420;42.676;23.262;2022-09-20T08:15:03;94672.81;;;13.42;63.46
12077;BME280;12420;42.676;23.262;2022-09-20T08:17:30;94709.19;;;14.02;64.42
12077;BME280;12420;42.676;23.262;2022-09-20T08:20:02;94769.47;;;14.64;64.39
12077;BME280;12420;42.676;23.262;2022-09-20T08:22:31;94708.63;;;14.47;63.76
12077;BME280;12420;42.676;23.262;2022-09-20T08:24:59;94798.53;;;14.92;59.58
12077;BME280;12420;42.676;23.262;2022-09-20T08:27:27;94756.06;;;14.63;60.73
12077;BME280;12420;42.676;23.262;2022-09-20T08:29:54;94764.38;;;14.91;61.60
12077;BME280;12420;42.676;23.262;2022-09-20T08:32:21;94736.63;;;14.78;60.88
12077;BME280;12420;42.676;23.262;2022-09-20T08:34:48;94763.84;;;15.08;60.15
12077;BME280;12420;42.676;23.262;2022-09-20T08:37:17;94768.28;;;14.96;60.28
12077;BME280;12420;42.676;23.262;2022-09-20T08:39:44;94759.00;;;15.01;61.02
12077;BME280;12420;42.676;23.262;2022-09-20T08:42:18;94709.13;;;14.67;61.03
12077;BME280;12420;42.676;23.262;2022-09-20T08:44:51;94759.19;;;15.03;60.55
12077;BME280;12420;42.676;23.262;2022-09-20T08:47:22;94724.59;;;14.91;59.88
12077;BME280;12420;42.676;23.262;2022-09-20T08:49:51;94651.94;;;14.73;59.23
12077;BME280;12420;42.676;23.262;2022-09-20T08:52:26;94755.91;;;15.58;59.02
12077;BME280;12420;42.676;23.262;2022-09-20T08:54:55;94730.56;;;15.03;58.53
12077;BME280;12420;42.676;23.262;2022-09-20T08:57:26;94746.78;;;15.35;59.01
12077;BME280;12420;42.676;23.262;2022-09-20T08:59:54;94750.13;;;15.56;58.30
12077;BME280;12420;42.676;23.262;2022-09-20T09:02:21;94668.72;;;15.35;60.79
12077;BME280;12420;42.676;23.262;2022-09-20T09:04:49;94748.13;;;15.95;55.61
12077;BME280;12420;42.676;23.262;2022-09-20T09:07:19;94696.56;;;15.89;53.85
12077;BME280;12420;42.676;23.262;2022-09-20T09:09:51;94740.66;;;16.05;53.53
12077;BME280;12420;42.676;23.262;2022-09-20T09:12:20;94731.94;;;15.71;54.54
12077;BME280;12420;42.676;23.262;2022-09-20T09:14:50;94718.91;;;15.81;54.11
12077;BME280;12420;42.676;23.262;2022-09-20T09:17:25;94723.19;;;15.74;54.81
12077;BME280;12420;42.676;23.262;2022-09-20T09:19:53;94725.81;;;15.88;56.52
12077;BME280;12420;42.676;23.262;2022-09-20T09:22:27;94722.22;;;15.95;54.01
12077;BME280;12420;42.676;23.262;2022-09-20T09:27:53;94727.38;;;16.29;53.91
12077;BME280;12420;42.676;23.262;2022-09-20T09:30:25;94718.72;;;16.58;54.34
12077;BME280;12420;42.676;23.262;2022-09-20T09:32:53;94716.22;;;16.77;53.19
12077;BME280;12420;42.676;23.262;2022-09-20T09:35:39;94706.00;;;16.72;51.79
12077;BME280;12420;42.676;23.262;2022-09-20T09:38:16;94695.94;;;16.28;50.29
12077;BME280;12420;42.676;23.262;2022-09-20T09:40:51;94621.47;;;15.52;51.31
12077;BME280;12420;42.676;23.262;2022-09-20T09:43:22;94693.53;;;16.10;52.43
12077;BME280;12420;42.676;23.262;2022-09-20T09:45:52;94699.94;;;15.79;53.54
12077;BME280;12420;42.676;23.262;2022-09-20T09:48:23;94692.13;;;15.39;54.59
12077;BME280;12420;42.676;23.262;2022-09-20T09:51:06;94683.19;;;15.41;54.77
12077;BME280;12420;42.676;23.262;2022-09-20T09:53:33;94664.41;;;15.34;54.35
12077;BME280;12420;42.676;23.262;2022-09-20T09:56:11;94701.25;;;15.55;53.58
12077;BME280;12420;42.676;23.262;2022-09-20T09:59:00;94699.38;;;15.35;53.63
12077;BME280;12420;42.676;23.262;2022-09-20T10:01:36;94695.09;;;15.49;53.94
12077;BME280;12420;42.676;23.262;2022-09-20T10:04:12;94680.06;;;15.45;51.40
12077;BME280;12420;42.676;23.262;2022-09-20T10:06:49;94687.28;;;15.86;51.84
12077;BME280;12420;42.676;23.262;2022-09-20T10:09:27;94691.16;;;15.98;53.15
12077;BME280;12420;42.676;23.262;2022-09-20T10:12:07;94743.84;;;15.71;52.63
12077;BME280;12420;42.676;23.262;2022-09-20T10:14:54;94700.31;;;15.45;54.38
12077;BME280;12420;42.676;23.262;2022-09-20T10:17:43;94702.34;;;15.68;51.81
12077;BME280;12420;42.676;23.262;2022-09-20T10:20:32;94691.56;;;15.41;51.59
12077;BME280;12420;42.676;23.262;2022-09-20T10:23:15;94667.59;;;15.46;50.45
12077;BME280;12420;42.676;23.262;2022-09-20T10:25:49;94693.59;;;15.63;50.52
12077;BME280;12420;42.676;23.262;2022-09-20T10:28:37;94701.03;;;15.84;52.19
12077;BME280;12420;42.676;23.262;2022-09-20T10:31:22;94692.47;;;15.59;51.29
12077;BME280;12420;42.676;23.262;2022-09-20T10:34:08;94682.06;;;15.52;50.43
12077;BME280;12420;42.676;23.262;2022-09-20T10:36:44;94687.31;;;15.40;50.71
12077;BME280;12420;42.676;23.262;2022-09-20T10:39:21;94645.47;;;15.25;51.07
12077;BME280;12420;42.676;23.262;2022-09-20T10:41:59;94689.50;;;15.49;51.20
12077;BME280;12420;42.676;23.262;2022-09-20T10:44:58;94689.50;;;15.64;51.39
12077;BME280;12420;42.676;23.262;2022-09-20T10:47:37;94678.91;;;15.63;50.51
12077;BME280;12420;42.676;23.262;2022-09-20T10:50:19;94671.13;;;15.38;52.20
12077;BME280;12420;42.676;23.262;2022-09-20T10:53:18;94687.50;;;15.42;50.85
12077;BME280;12420;42.676;23.262;2022-09-20T10:55:57;94695.44;;;15.00;51.31
12077;BME280;12420;42.676;23.262;2022-09-20T11:01:39;94678.16;;;14.93;50.89
12077;BME280;12420;42.676;23.262;2022-09-20T11:04:30;94682.25;;;14.92;51.43
12077;BME280;12420;42.676;23.262;2022-09-20T11:07:08;94636.66;;;14.59;51.30
12077;BME280;12420;42.676;23.262;2022-09-20T11:09:37;94641.16;;;14.85;51.44
12077;BME280;12420;42.676;23.262;2022-09-20T11:12:11;94662.19;;;15.25;49.82
12077;BME280;12420;42.676;23.262;2022-09-20T11:14:45;94648.06;;;15.15;50.47
12077;BME280;12420;42.676;23.262;2022-09-20T11:17:21;94618.53;;;15.12;49.47
12077;BME280;12420;42.676;23.262;2022-09-20T11:19:54;94646.00;;;15.38;49.59
12077;BME280;12420;42.676;23.262;2022-09-20T11:22:27;94644.34;;;15.43;49.79
12077;BME280;12420;42.676;23.262;2022-09-20T11:25:01;94669.44;;;15.74;49.61
12077;BME280;12420;42.676;23.262;2022-09-20T11:27:36;94603.66;;;15.02;50.43
12077;BME280;12420;42.676;23.262;2022-09-20T11:30:12;94641.19;;;15.39;51.33
12077;BME280;12420;42.676;23.262;2022-09-20T11:32:46;94655.31;;;15.33;51.75
12077;BME280;12420;42.676;23.262;2022-09-20T11:35:23;94651.97;;;15.27;52.10
12077;BME280;12420;42.676;23.262;2022-09-20T11:37:57;94657.88;;;15.62;52.67
12077;BME280;12420;42.676;23.262;2022-09-20T11:40:31;94611.59;;;15.51;52.23
12077;BME280;12420;42.676;23.262;2022-09-20T11:43:01;94640.31;;;16.08;51.37
12077;BME280;12420;42.676;23.262;2022-09-20T11:45:33;94632.72;;;16.00;50.74
12077;BME280;12420;42.676;23.262;2022-09-20T11:48:09;94643.16;;;15.92;47.49
12077;BME280;12420;42.676;23.262;2022-09-20T11:53:54;94634.09;;;15.61;48.21
12077;BME280;12420;42.676;23.262;2022-09-20T11:56:27;94648.56;;;15.67;48.76
12077;BME280;12420;42.676;23.262;2022-09-20T11:58:57;94642.59;;;15.94;49.56
12077;BME280;12420;42.676;23.262;2022-09-20T12:01:27;94625.06;;;16.09;48.50
12077;BME280;12420;42.676;23.262;2022-09-20T12:03:58;94648.22;;;16.34;46.63
12077;BME280;12420;42.676;23.262;2022-09-20T12:06:29;94616.09;;;16.50;46.83
12077;BME280;12420;42.676;23.262;2022-09-20T12:08:59;94558.50;;;16.30;46.06
12077;BME280;12420;42.676;23.262;2022-09-20T12:11:29;94625.91;;;16.67;46.22
12077;BME280;12420;42.676;23.262;2022-09-20T12:14:03;94617.03;;;16.53;45.70
12077;BME280;12420;42.676;23.262;2022-09-20T12:16:37;94612.16;;;16.61;45.95
12077;BME280;12420;42.676;23.262;2022-09-20T12:19:09;94632.75;;;16.74;44.31
12077;BME280;12420;42.676;23.262;2022-09-20T12:25:34;94626.16;;;16.86;43.63
12077;BME280;12420;42.676;23.262;2022-09-20T12:28:13;94625.38;;;16.93;43.13
12077;BME280;12420;42.676;23.262;2022-09-20T12:30:40;94606.53;;;16.69;44.17
12077;BME280;12420;42.676;23.262;2022-09-20T12:33:18;94628.34;;;16.63;44.39
12077;BME280;12420;42.676;23.262;2022-09-20T12:36:14;94623.19;;;16.52;46.27
12077;BME280;12420;42.676;23.262;2022-09-20T12:39:02;94635.97;;;16.62;47.19
12077;BME280;12420;42.676;23.262;2022-09-20T12:41:45;94626.09;;;16.28;46.15
12077;BME280;12420;42.676;23.262;2022-09-20T12:44:28;94627.94;;;16.34;46.68
12077;BME280;12420;42.676;23.262;2022-09-20T12:46:58;94624.97;;;16.32;46.89
12077;BME280;12420;42.676;23.262;2022-09-20T12:49:38;94611.75;;;16.32;46.55
12077;BME280;12420;42.676;23.262;2022-09-20T12:52:55;94639.22;;;16.11;44.51
12077;BME280;12420;42.676;23.262;2022-09-20T12:55:37;94631.81;;;15.98;45.12
12077;BME280;12420;42.676;23.262;2022-09-20T12:58:20;94597.22;;;15.86;45.03
12077;BME280;12420;42.676;23.262;2022-09-20T13:00:50;94630.63;;;16.16;44.61
12077;BME280;12420;42.676;23.262;2022-09-20T13:03:38;94619.28;;;16.06;44.86
12077;BME280;12420;42.676;23.262;2022-09-20T13:06:24;94557.75;;;15.89;45.82
12077;BME280;12420;42.676;23.262;2022-09-20T13:08:56;94618.72;;;16.16;45.35
12077;BME280;12420;42.676;23.262;2022-09-20T13:11:36;94595.66;;;16.08;45.74
12077;BME280;12420;42.676;23.262;2022-09-20T13:14:09;94614.19;;;16.20;45.08
12077;BME280;12420;42.676;23.262;2022-09-20T13:16:46;94621.28;;;16.21;44.80
12077;BME280;12420;42.676;23.262;2022-09-20T13:19:17;94600.56;;;15.84;44.68
12077;BME280;12420;42.676;23.262;2022-09-20T13:21:52;94611.13;;;16.01;45.04
12077;BME280;12420;42.676;23.262;2022-09-20T13:24:23;94612.25;;;16.05;43.66
12077;BME280;12420;42.676;23.262;2022-09-20T13:26:53;94590.72;;;15.83;42.41
12077;BME280;12420;42.676;23.262;2022-09-20T13:29:25;94615.19;;;16.08;43.21
12077;BME280;12420;42.676;23.262;2022-09-20T13:31:55;94621.38;;;15.98;42.75
12077;BME280;12420;42.676;23.262;2022-09-20T13:34:22;94595.19;;;15.86;42.31
12077;BME280;12420;42.676;23.262;2022-09-20T13:36:53;94603.78;;;15.73;42.85
12077;BME280;12420;42.676;23.262;2022-09-20T13:39:29;94618.41;;;15.96;42.56
12077;BME280;12420;42.676;23.262;2022-09-20T13:42:01;94526.66;;;15.45;42.99
12077;BME280;12420;42.676;23.262;2022-09-20T13:44:31;94587.84;;;16.06;43.18
12077;BME280;12420;42.676;23.262;2022-09-20T13:46:59;94603.25;;;16.15;42.28
12077;BME280;12420;42.676;23.262;2022-09-20T13:49:30;94569.50;;;15.88;41.78
12077;BME280;12420;42.676;23.262;2022-09-20T13:51:57;94574.69;;;15.91;42.17
12077;BME280;12420;42.676;23.262;2022-09-20T13:54:27;94609.88;;;16.35;42.71
12077;BME280;12420;42.676;23.262;2022-09-20T13:56:56;94617.63;;;16.03;43.54
12077;BME280;12420;42.676;23.262;2022-09-20T13:59:32;94568.78;;;15.79;43.40
12077;BME280;12420;42.676;23.262;2022-09-20T14:02:02;94607.00;;;16.10;44.74
12077;BME280;12420;42.676;23.262;2022-09-20T14:04:30;94583.72;;;16.15;44.55
12077;BME280;12420;42.676;23.262;2022-09-20T14:06:58;94606.66;;;16.38;44.54
12077;BME280;12420;42.676;23.262;2022-09-20T14:09:29;94605.56;;;16.41;44.36
12077;BME280;12420;42.676;23.262;2022-09-20T14:11:57;94604.41;;;16.44;45.17
12077;BME280;12420;42.676;23.262;2022-09-20T14:14:25;94607.00;;;16.50;46.30
12077;BME280;12420;42.676;23.262;2022-09-20T14:16:54;94595.81;;;16.50;46.55
12077;BME280;12420;42.676;23.262;2022-09-20T14:19:26;94597.31;;;16.43;47.40